Time;durP1;ratioP1;P1;durP2;ratioP2;P2;SDS_P1;SDS_P2;PMS_P1;PMS_P2;Temp;Humidity;BMP_temperature;BMP_pressure;BME280_temperature;BME280_humidity;BME280_pressure;Samples;Min_cycle;Max_cycle;Signal;HPM_P1;HPM_P2
2023/01/25 00:01:22;;;;;;;9.13;5.13;;;;;;;;;;10467726;28;20063;-79
2023/01/25 00:06:22;;;;;;;8.70;5.00;;;;;;;;;;10449749;28;20120;-73
2023/01/25 00:11:22;;;;;;;9.27;4.93;;;;;;;;;;10474215;28;20032;-79
2023/01/25 00:16:23;;;;;;;14.15;6.50;;;;;;;;;;10463009;28;20034;-78
2023/01/25 00:21:24;;;;;;;10.45;5.38;;;;;;;;;;10465179;28;20028;-71
2023/01/25 00:26:24;;;;;;;10.27;6.00;;;;;;;;;;10466012;28;20020;-78
2023/01/25 00:31:46;;;;;;;9.90;5.32;;;;;;;;;;10465793;28;20024;-80
2023/01/25 00:36:48;;;;;;;11.55;5.05;;;;;;;;;;10425036;28;20119;-71
2023/01/25 00:41:48;;;;;;;9.93;5.28;;;;;;;;;;10465337;28;20043;-73
2023/01/25 00:46:48;;;;;;;8.73;4.70;;;;;;;;;;10466247;28;20470;-77
2023/01/25 00:51:49;;;;;;;13.73;5.90;;;;;;;;;;10452904;28;20033;-77
2023/01/25 00:56:52;;;;;;;12.70;5.90;;;;;;;;;;10464534;28;20028;-76
2023/01/25 01:01:52;;;;;;;9.93;5.07;;;;;;;;;;10464931;28;20044;-74
2023/01/25 01:06:53;;;;;;;10.50;5.28;;;;;;;;;;10464144;28;20013;-73
2023/01/25 01:11:53;;;;;;;11.00;6.00;;;;;;;;;;10458359;28;20019;-77
2023/01/25 01:16:54;;;;;;;11.30;5.20;;;;;;;;;;10472345;28;20024;-78
2023/01/25 01:21:54;;;;;;;7.63;4.03;;;;;;;;;;10472777;28;20551;-77
2023/01/25 01:26:54;;;;;;;8.37;4.07;;;;;;;;;;10474531;28;20070;-77
2023/01/25 01:31:55;;;;;;;9.07;4.25;;;;;;;;;;10473227;28;20020;-80
2023/01/25 01:36:55;;;;;;;11.40;5.22;;;;;;;;;;10470579;28;20025;-79
2023/01/25 01:41:55;;;;;;;13.35;4.50;;;;;;;;;;10472039;28;20726;-78
2023/01/25 01:46:57;;;;;;;8.65;4.20;;;;;;;;;;10472245;28;20165;-71
2023/01/25 01:51:59;;;;;;;15.75;5.32;;;;;;;;;;10473117;28;20135;-76
2023/01/25 01:57:03;;;;;;;8.63;4.65;;;;;;;;;;10471466;28;20021;-77
2023/01/25 02:02:04;;;;;;;6.22;3.38;;;;;;;;;;10471693;28;20056;-77
2023/01/25 02:07:12;;;;;;;5.40;2.60;;;;;;;;;;10456929;28;20044;-77
2023/01/25 02:12:12;;;;;;;5.97;3.42;;;;;;;;;;10471549;28;20521;-77
2023/01/25 02:17:13;;;;;;;4.30;2.50;;;;;;;;;;10478907;28;20024;-74
2023/01/25 02:22:15;;;;;;;7.97;3.42;;;;;;;;;;10471298;28;20051;-75
2023/01/25 02:27:15;;;;;;;6.07;2.65;;;;;;;;;;10472402;28;20479;-76
2023/01/25 02:32:15;;;;;;;5.45;3.60;;;;;;;;;;10481705;28;20020;-73
2023/01/25 02:37:16;;;;;;;5.65;3.00;;;;;;;;;;10471154;28;20024;-75
2023/01/25 02:42:16;;;;;;;6.70;3.07;;;;;;;;;;10488134;28;20119;-77
2023/01/25 02:47:16;;;;;;;8.13;3.15;;;;;;;;;;10469457;28;20269;-76
2023/01/25 02:52:17;;;;;;;5.67;3.50;;;;;;;;;;10487841;28;20024;-74
2023/01/25 02:57:17;;;;;;;11.63;3.88;;;;;;;;;;10457139;28;20487;-78
2023/01/25 03:02:17;;;;;;;6.05;3.22;;;;;;;;;;10469374;28;20142;-79
2023/01/25 03:07:18;;;;;;;7.55;3.72;;;;;;;;;;10469025;28;20487;-72
2023/01/25 03:12:18;;;;;;;7.93;3.38;;;;;;;;;;10469378;28;20089;-80
2023/01/25 03:17:18;;;;;;;5.03;2.85;;;;;;;;;;10469864;28;20021;-75
2023/01/25 03:22:18;;;;;;;5.53;3.38;;;;;;;;;;10473133;28;20113;-79
2023/01/25 03:27:19;;;;;;;7.07;3.23;;;;;;;;;;10470351;28;20473;-80
2023/01/25 03:32:19;;;;;;;5.37;3.43;;;;;;;;;;10468601;28;20281;-75
2023/01/25 03:37:19;;;;;;;6.03;4.13;;;;;;;;;;10450826;28;20104;-72
2023/01/25 03:42:20;;;;;;;10.43;3.55;;;;;;;;;;10467128;28;20435;-76
2023/01/25 03:47:20;;;;;;;6.22;3.13;;;;;;;;;;10467814;28;20025;-80
2023/01/25 03:52:27;;;;;;;7.57;3.33;;;;;;;;;;10467240;28;20627;-80
2023/01/25 03:57:27;;;;;;;8.20;3.15;;;;;;;;;;10466922;28;20490;-72
2023/01/25 04:02:27;;;;;;;5.47;2.90;;;;;;;;;;10467349;28;20048;-74
2023/01/25 04:07:27;;;;;;;6.90;3.67;;;;;;;;;;10466798;28;20027;-76
2023/01/25 04:12:28;;;;;;;8.23;3.83;;;;;;;;;;10467265;28;20020;-74
2023/01/25 04:17:28;;;;;;;8.73;3.03;;;;;;;;;;10484521;28;20050;-79
2023/01/25 04:22:28;;;;;;;5.57;2.88;;;;;;;;;;10458969;28;20409;-73
2023/01/25 04:27:28;;;;;;;6.63;3.33;;;;;;;;;;10484085;28;20434;-76
2023/01/25 04:32:29;;;;;;;5.70;2.50;;;;;;;;;;10466121;28;20448;-76
2023/01/25 04:37:29;;;;;;;4.78;2.60;;;;;;;;;;10455179;28;20525;-76
2023/01/25 04:42:29;;;;;;;3.28;2.28;;;;;;;;;;10448188;28;20021;-72
2023/01/25 04:47:29;;;;;;;6.60;2.60;;;;;;;;;;10457604;28;20050;-75
2023/01/25 04:52:30;;;;;;;4.85;2.70;;;;;;;;;;10482632;28;20090;-77
2023/01/25 04:57:32;;;;;;;4.93;2.40;;;;;;;;;;10469545;28;20029;-80
2023/01/25 05:02:33;;;;;;;4.75;2.28;;;;;;;;;;10462739;28;20131;-77
2023/01/25 05:07:33;;;;;;;3.35;2.33;;;;;;;;;;10462988;28;20028;-75
2023/01/25 05:12:34;;;;;;;3.97;2.00;;;;;;;;;;10458273;28;20114;-78
2023/01/25 05:17:34;;;;;;;4.15;2.55;;;;;;;;;;10464814;28;20048;-78
2023/01/25 05:22:34;;;;;;;4.75;2.22;;;;;;;;;;10488008;28;20032;-79
2023/01/25 05:27:34;;;;;;;6.65;3.08;;;;;;;;;;10456122;28;20024;-77
2023/01/25 05:32:35;;;;;;;4.90;2.03;;;;;;;;;;10463438;28;20028;-75
2023/01/25 05:37:35;;;;;;;5.70;2.38;;;;;;;;;;10480981;28;20036;-72
2023/01/25 05:42:35;;;;;;;4.53;2.47;;;;;;;;;;10464287;28;20114;-75
2023/01/25 05:47:36;;;;;;;5.60;2.53;;;;;;;;;;10462597;28;20054;-78
2023/01/25 05:52:36;;;;;;;5.45;2.95;;;;;;;;;;10463752;28;20040;-72
2023/01/25 05:57:36;;;;;;;6.25;3.00;;;;;;;;;;10446253;28;20044;-77
2023/01/25 06:02:36;;;;;;;4.55;2.72;;;;;;;;;;10456272;28;20052;-73
2023/01/25 06:07:37;;;;;;;5.50;3.10;;;;;;;;;;10471918;28;20020;-76
2023/01/25 06:12:39;;;;;;;5.47;3.00;;;;;;;;;;10463545;28;20552;-74
2023/01/25 06:17:39;;;;;;;6.82;3.47;;;;;;;;;;10440035;28;20033;-74
2023/01/25 06:22:39;;;;;;;7.38;3.35;;;;;;;;;;10452549;28;20025;-78
2023/01/25 06:27:40;;;;;;;8.57;3.47;;;;;;;;;;10444224;28;20025;-76
2023/01/25 06:32:40;;;;;;;12.40;4.53;;;;;;;;;;10474416;28;20347;-72
2023/01/25 06:37:40;;;;;;;7.90;4.33;;;;;;;;;;10480621;28;20016;-75
2023/01/25 06:42:41;;;;;;;7.60;4.32;;;;;;;;;;10467886;28;20028;-72
2023/01/25 06:47:41;;;;;;;20.20;9.90;;;;;;;;;;10469198;28;20458;-73
2023/01/25 06:52:42;;;;;;;10.73;4.15;;;;;;;;;;10468460;28;20479;-73
2023/01/25 06:57:42;;;;;;;7.78;4.57;;;;;;;;;;10468818;28;20028;-79
2023/01/25 07:02:42;;;;;;;6.90;3.92;;;;;;;;;;10465953;28;20197;-73
2023/01/25 07:07:46;;;;;;;7.13;3.70;;;;;;;;;;10459342;28;20025;-71
2023/01/25 07:12:46;;;;;;;9.27;3.85;;;;;;;;;;10461235;28;20406;-78
2023/01/25 07:17:46;;;;;;;6.47;4.10;;;;;;;;;;10468586;28;20021;-73
2023/01/25 07:22:46;;;;;;;9.50;4.50;;;;;;;;;;10467846;28;20032;-75
2023/01/25 07:27:47;;;;;;;9.02;5.20;;;;;;;;;;10467714;28;20067;-74
2023/01/25 07:32:47;;;;;;;8.73;4.72;;;;;;;;;;10468116;28;20025;-73
2023/01/25 07:37:47;;;;;;;8.43;5.82;;;;;;;;;;10450848;28;20515;-75
2023/01/25 07:42:49;;;;;;;11.18;5.47;;;;;;;;;;10467535;28;20024;-75
2023/01/25 07:47:49;;;;;;;11.07;6.78;;;;;;;;;;10467424;28;20024;-75
2023/01/25 07:52:49;;;;;;;12.10;5.85;;;;;;;;;;10446677;28;20837;-74
2023/01/25 07:57:54;;;;;;;13.15;6.68;;;;;;;;;;10467241;28;20032;-73
2023/01/25 08:02:54;;;;;;;12.02;5.68;;;;;;;;;;10466762;28;20044;-77
2023/01/25 08:07:54;;;;;;;13.43;7.03;;;;;;;;;;10473062;28;20020;-77
2023/01/25 08:12:54;;;;;;;14.70;6.90;;;;;;;;;;10466469;28;20449;-78
2023/01/25 08:17:58;;;;;;;18.08;8.13;;;;;;;;;;10465902;28;20064;-71
2023/01/25 08:22:58;;;;;;;15.20;8.07;;;;;;;;;;10464470;28;20030;-75
2023/01/25 08:27:58;;;;;;;15.65;9.43;;;;;;;;;;10465835;28;20040;-73
2023/01/25 08:32:58;;;;;;;12.20;6.97;;;;;;;;;;10465727;28;20107;-77
2023/01/25 08:37:59;;;;;;;11.18;6.50;;;;;;;;;;10465451;28;20020;-73
2023/01/25 08:42:59;;;;;;;14.47;7.37;;;;;;;;;;10475743;28;20025;-78
2023/01/25 08:47:59;;;;;;;17.90;8.75;;;;;;;;;;10456052;28;20081;-77
2023/01/25 08:52:59;;;;;;;14.23;8.07;;;;;;;;;;10448509;28;20032;-77
2023/01/25 08:58:00;;;;;;;12.55;7.30;;;;;;;;;;10455856;28;20394;-73
2023/01/25 09:03:00;;;;;;;14.05;7.35;;;;;;;;;;10464627;28;20083;-72
2023/01/25 09:08:01;;;;;;;13.98;7.72;;;;;;;;;;10465202;28;20024;-78
2023/01/25 09:13:01;;;;;;;12.95;7.35;;;;;;;;;;10464392;28;20379;-73
2023/01/25 09:18:02;;;;;;;16.27;8.82;;;;;;;;;;10465192;28;20083;-78
2023/01/25 09:23:03;;;;;;;10.23;7.13;;;;;;;;;;10465162;28;20545;-77
2023/01/25 09:28:10;;;;;;;12.50;8.07;;;;;;;;;;10464986;28;20516;-74
2023/01/25 09:33:13;;;;;;;13.13;8.55;;;;;;;;;;10472786;28;20466;-73
2023/01/25 09:38:14;;;;;;;14.05;8.30;;;;;;;;;;10471772;28;20025;-72
2023/01/25 09:43:22;;;;;;;11.88;8.38;;;;;;;;;;10471879;28;20024;-77
2023/01/25 09:48:27;;;;;;;10.02;6.43;;;;;;;;;;10472336;28;20020;-75
2023/01/25 09:53:34;;;;;;;9.55;7.32;;;;;;;;;;10459428;28;20478;-74
2023/01/25 09:58:37;;;;;;;9.80;7.15;;;;;;;;;;10471440;28;20056;-79
2023/01/25 10:03:37;;;;;;;10.77;6.57;;;;;;;;;;10471098;28;20085;-77
2023/01/25 10:08:58;;;;;;;10.98;6.38;;;;;;;;;;10445499;28;20031;-75
2023/01/25 10:13:58;;;;;;;8.25;5.43;;;;;;;;;;10470398;28;20020;-77
2023/01/25 10:19:22;;;;;;;9.23;6.15;;;;;;;;;;10488865;28;20024;-77
2023/01/25 10:24:28;;;;;;;8.63;5.43;;;;;;;;;;10470709;28;20020;-76
2023/01/25 10:29:33;;;;;;;9.15;5.55;;;;;;;;;;10470649;28;20013;-76
2023/01/25 10:34:37;;;;;;;9.10;5.60;;;;;;;;;;10470158;28;20035;-73
2023/01/25 10:39:41;;;;;;;12.00;6.00;;;;;;;;;;10470185;28;20082;-77
2023/01/25 10:44:41;;;;;;;11.60;6.22;;;;;;;;;;10469350;28;20536;-77
2023/01/25 10:49:45;;;;;;;6.30;4.35;;;;;;;;;;10469232;28;20013;-76
2023/01/25 10:54:49;;;;;;;6.90;4.63;;;;;;;;;;10487368;28;20119;-71
2023/01/25 10:59:50;;;;;;;8.95;5.68;;;;;;;;;;10468964;28;20048;-73
2023/01/25 11:04:50;;;;;;;12.30;5.35;;;;;;;;;;10469668;28;20441;-79
2023/01/25 11:09:51;;;;;;;7.05;4.35;;;;;;;;;;10471115;28;20028;-72
2023/01/25 11:14:51;;;;;;;10.38;5.03;;;;;;;;;;10489132;28;20112;-72
2023/01/25 11:20:24;;;;;;;7.35;4.65;;;;;;;;;;10451598;28;20028;-74
2023/01/25 11:25:26;;;;;;;6.57;3.97;;;;;;;;;;10424489;28;20040;-78
2023/01/25 11:30:26;;;;;;;9.05;4.38;;;;;;;;;;10467489;28;20027;-76
2023/01/25 11:35:30;;;;;;;8.18;4.55;;;;;;;;;;10463753;28;20430;-75
2023/01/25 11:40:34;;;;;;;15.40;4.28;;;;;;;;;;10460347;28;20163;-73
2023/01/25 11:45:37;;;;;;;11.60;6.38;;;;;;;;;;10477312;28;20028;-76
2023/01/25 11:50:41;;;;;;;9.60;5.20;;;;;;;;;;10467320;28;20398;-76
2023/01/25 11:55:53;;;;;;;11.32;4.90;;;;;;;;;;10467102;28;20024;-77
2023/01/25 12:00:59;;;;;;;8.73;4.85;;;;;;;;;;10466226;28;20117;-75
2023/01/25 12:06:18;;;;;;;8.55;4.85;;;;;;;;;;10484379;28;20028;-73
2023/01/25 12:11:31;;;;;;;12.27;4.75;;;;;;;;;;10466895;28;20119;-78
2023/01/25 12:16:43;;;;;;;10.02;4.75;;;;;;;;;;10466255;28;20471;-73
2023/01/25 12:21:43;;;;;;;7.53;4.63;;;;;;;;;;10457283;28;20526;-79
2023/01/25 12:26:48;;;;;;;9.07;5.60;;;;;;;;;;10428808;28;20020;-75
2023/01/25 12:32:07;;;;;;;12.65;5.55;;;;;;;;;;10475296;28;20047;-74
2023/01/25 12:37:15;;;;;;;18.70;6.47;;;;;;;;;;10483620;28;20027;-78
2023/01/25 12:42:19;;;;;;;8.57;5.03;;;;;;;;;;10465470;28;20063;-78
2023/01/25 12:47:19;;;;;;;10.45;4.57;;;;;;;;;;10465593;28;20039;-72
2023/01/25 12:52:19;;;;;;;8.45;4.78;;;;;;;;;;10464986;28;20035;-77
2023/01/25 12:57:26;;;;;;;8.85;4.75;;;;;;;;;;10464604;28;20115;-73
2023/01/25 13:02:29;;;;;;;7.68;5.35;;;;;;;;;;10465071;28;20076;-73
2023/01/25 13:07:36;;;;;;;8.52;5.25;;;;;;;;;;10464756;28;20117;-76
2023/01/25 13:12:49;;;;;;;9.90;5.85;;;;;;;;;;10477936;28;20046;-78
2023/01/25 13:17:50;;;;;;;8.65;5.07;;;;;;;;;;10478384;28;20026;-77
2023/01/25 13:22:52;;;;;;;11.90;5.27;;;;;;;;;;10478064;28;20252;-76
2023/01/25 13:28:12;;;;;;;10.40;5.55;;;;;;;;;;10477802;28;20016;-77
2023/01/25 13:33:30;;;;;;;5.70;4.03;;;;;;;;;;10478824;28;20424;-77
2023/01/25 13:38:32;;;;;;;9.30;5.27;;;;;;;;;;10496376;28;20032;-78
2023/01/25 13:43:32;;;;;;;7.97;5.20;;;;;;;;;;10498122;28;21143;-74
2023/01/25 13:48:34;;;;;;;9.50;6.63;;;;;;;;;;10492289;28;20016;-72
2023/01/25 13:53:38;;;;;;;11.25;6.38;;;;;;;;;;10487523;28;20023;-75
2023/01/25 13:58:44;;;;;;;8.38;5.53;;;;;;;;;;10490655;28;20413;-72
2023/01/25 14:03:46;;;;;;;8.73;5.95;;;;;;;;;;10489140;28;20037;-77
2023/01/25 14:08:47;;;;;;;10.32;6.47;;;;;;;;;;10488584;28;20470;-72
2023/01/25 14:14:23;;;;;;;15.70;7.00;;;;;;;;;;10471239;28;20067;-73
2023/01/25 14:19:30;;;;;;;13.57;8.05;;;;;;;;;;10422232;28;20490;-75
2023/01/25 14:24:30;;;;;;;14.60;7.95;;;;;;;;;;10474845;28;20035;-72
2023/01/25 14:29:32;;;;;;;10.60;6.35;;;;;;;;;;10478157;28;20028;-76
2023/01/25 14:34:33;;;;;;;13.82;6.25;;;;;;;;;;10488573;28;20016;-76
2023/01/25 14:39:33;;;;;;;10.63;6.95;;;;;;;;;;10483272;28;20024;-78
2023/01/25 14:44:33;;;;;;;8.32;5.15;;;;;;;;;;10483361;28;20021;-76
2023/01/25 14:49:33;;;;;;;12.18;6.35;;;;;;;;;;10471131;28;20055;-71
2023/01/25 14:54:35;;;;;;;11.07;7.05;;;;;;;;;;10498086;28;20036;-73
2023/01/25 14:59:37;;;;;;;10.95;7.25;;;;;;;;;;10477015;28;20536;-74
2023/01/25 15:04:37;;;;;;;12.25;7.05;;;;;;;;;;10478769;28;20553;-81
2023/01/25 15:09:39;;;;;;;15.02;8.25;;;;;;;;;;10469781;28;20032;-74
2023/01/25 15:14:47;;;;;;;13.75;8.57;;;;;;;;;;10484798;28;20031;-74
2023/01/25 15:19:51;;;;;;;14.60;8.02;;;;;;;;;;10476965;28;20491;-75
2023/01/25 15:24:51;;;;;;;13.52;7.75;;;;;;;;;;10465793;28;20043;-73
2023/01/25 15:29:51;;;;;;;12.32;6.55;;;;;;;;;;10492209;28;20029;-78
2023/01/25 15:34:51;;;;;;;14.60;6.57;;;;;;;;;;10471443;28;20032;-75
2023/01/25 15:39:52;;;;;;;10.07;6.03;;;;;;;;;;10478550;28;20640;-73
2023/01/25 15:44:52;;;;;;;18.60;8.25;;;;;;;;;;10480896;28;20047;-78
2023/01/25 15:49:52;;;;;;;13.02;7.22;;;;;;;;;;10482112;28;20024;-75
2023/01/25 15:54:53;;;;;;;15.17;7.47;;;;;;;;;;10473779;28;20043;-72
2023/01/25 15:59:56;;;;;;;13.23;7.23;;;;;;;;;;10472043;28;20051;-72
2023/01/25 16:04:56;;;;;;;14.88;7.13;;;;;;;;;;10479625;28;20465;-75
2023/01/25 16:09:56;;;;;;;14.65;7.10;;;;;;;;;;10476876;28;20029;-72
2023/01/25 16:15:00;;;;;;;15.52;6.13;;;;;;;;;;10475994;28;20136;-75
2023/01/25 16:20:00;;;;;;;17.88;8.23;;;;;;;;;;10479726;28;20020;-77
2023/01/25 16:25:02;;;;;;;13.70;7.03;;;;;;;;;;10472938;28;20093;-73
2023/01/25 16:30:04;;;;;;;12.90;7.05;;;;;;;;;;10474891;28;20012;-72
2023/01/25 16:35:04;;;;;;;13.00;6.80;;;;;;;;;;10459836;28;20028;-74
2023/01/25 16:40:05;;;;;;;15.82;7.43;;;;;;;;;;10478002;28;20020;-72
2023/01/25 16:45:05;;;;;;;9.98;6.07;;;;;;;;;;10463886;28;20020;-72
2023/01/25 16:50:11;;;;;;;12.98;5.82;;;;;;;;;;10493418;28;20020;-72
2023/01/25 16:55:12;;;;;;;12.98;7.18;;;;;;;;;;10466552;28;20098;-75
2023/01/25 17:00:13;;;;;;;17.27;7.95;;;;;;;;;;10459699;28;20757;-70
2023/01/25 17:05:13;;;;;;;16.63;7.13;;;;;;;;;;10468114;28;20533;-69
2023/01/25 17:10:13;;;;;;;18.02;8.25;;;;;;;;;;10484144;28;20032;-77
2023/01/25 17:15:16;;;;;;;19.88;7.90;;;;;;;;;;10466487;28;20158;-75
2023/01/25 17:20:17;;;;;;;15.38;7.45;;;;;;;;;;10469189;28;20136;-72
2023/01/25 17:25:17;;;;;;;19.60;9.10;;;;;;;;;;10469502;28;20281;-70
2023/01/25 17:30:17;;;;;;;15.80;7.90;;;;;;;;;;10481848;28;20692;-74
2023/01/25 17:35:17;;;;;;;15.98;7.55;;;;;;;;;;10473590;28;20501;-75
2023/01/25 17:40:18;;;;;;;16.80;8.40;;;;;;;;;;10463470;28;20541;-71
2023/01/25 17:45:18;;;;;;;14.77;8.47;;;;;;;;;;10475606;28;20025;-75
2023/01/25 17:50:18;;;;;;;22.25;10.82;;;;;;;;;;10475448;28;20720;-78
2023/01/25 17:55:18;;;;;;;21.67;10.38;;;;;;;;;;10472680;28;20366;-75
2023/01/25 18:00:19;;;;;;;17.48;9.98;;;;;;;;;;10481134;28;20447;-72
2023/01/25 18:05:20;;;;;;;18.05;9.30;;;;;;;;;;10494084;28;20040;-76
2023/01/25 18:10:20;;;;;;;17.17;8.82;;;;;;;;;;10490264;28;20036;-75
2023/01/25 18:15:21;;;;;;;15.95;9.25;;;;;;;;;;10470236;28;20025;-76
2023/01/25 18:20:22;;;;;;;15.93;7.65;;;;;;;;;;10487746;28;20800;-72
2023/01/25 18:25:40;;;;;;;21.05;10.23;;;;;;;;;;10488327;28;20013;-75
2023/01/25 18:30:41;;;;;;;;;;;;;;;;;;10475613;28;20024;-71
2023/01/25 18:35:42;;;;;;;21.95;10.75;;;;;;;;;;10463070;28;19912;-71
2023/01/25 18:40:43;;;;;;;27.52;10.23;;;;;;;;;;10465325;28;20449;-71
2023/01/25 18:45:43;;;;;;;17.40;9.63;;;;;;;;;;10466345;28;20028;-71
2023/01/25 18:50:43;;;;;;;16.85;9.13;;;;;;;;;;10490067;28;20020;-71
2023/01/25 18:55:44;;;;;;;20.98;11.23;;;;;;;;;;10469133;28;20039;-69
2023/01/25 19:00:45;;;;;;;15.45;8.88;;;;;;;;;;10488341;28;20055;-70
2023/01/25 19:05:49;;;;;;;22.08;11.55;;;;;;;;;;10466363;28;20035;-72
2023/01/25 19:10:51;;;;;;;17.75;9.65;;;;;;;;;;10465700;28;20030;-71
2023/01/25 19:16:00;;;;;;;19.85;10.75;;;;;;;;;;10466863;28;20029;-75
2023/01/25 19:21:00;;;;;;;24.33;11.05;;;;;;;;;;10466811;28;20690;-72
2023/01/25 19:26:04;;;;;;;20.52;10.93;;;;;;;;;;10468607;28;20092;-76
2023/01/25 19:31:09;;;;;;;26.15;10.98;;;;;;;;;;10470925;28;20077;-72
2023/01/25 19:36:17;;;;;;;16.30;10.15;;;;;;;;;;10478226;28;20029;-75
2023/01/25 19:41:18;;;;;;;17.02;9.02;;;;;;;;;;10479505;28;20486;-78
2023/01/25 19:46:20;;;;;;;19.33;8.18;;;;;;;;;;10473998;28;20270;-71
2023/01/25 19:51:31;;;;;;;21.67;9.60;;;;;;;;;;10490501;28;20039;-76
2023/01/25 19:56:32;;;;;;;18.38;9.77;;;;;;;;;;10477669;28;20549;-77
2023/01/25 20:01:36;;;;;;;21.73;10.20;;;;;;;;;;10479975;28;20040;-78
2023/01/25 20:06:36;;;;;;;17.98;10.40;;;;;;;;;;10469264;28;20031;-75
2023/01/25 20:11:37;;;;;;;19.37;7.87;;;;;;;;;;10458564;28;20031;-77
2023/01/25 20:16:37;;;;;;;17.63;9.27;;;;;;;;;;10463797;28;20020;-76
2023/01/25 20:21:38;;;;;;;18.80;9.93;;;;;;;;;;10471807;28;20033;-74
2023/01/25 20:26:41;;;;;;;21.10;10.68;;;;;;;;;;10462464;28;20021;-72
2023/01/25 20:31:43;;;;;;;20.38;10.82;;;;;;;;;;10461242;28;20494;-78
2023/01/25 20:36:44;;;;;;;17.85;10.32;;;;;;;;;;10462655;28;20025;-75
2023/01/25 20:41:44;;;;;;;20.60;9.27;;;;;;;;;;10458615;28;20025;-74
2023/01/25 20:46:44;;;;;;;17.23;9.02;;;;;;;;;;10455231;28;20020;-71
2023/01/25 20:51:45;;;;;;;21.77;9.50;;;;;;;;;;10461207;28;20494;-75
2023/01/25 20:56:46;;;;;;;16.60;7.20;;;;;;;;;;10449819;28;20491;-71
2023/01/25 21:01:49;;;;;;;14.30;7.72;;;;;;;;;;10462443;28;20524;-72
2023/01/25 21:06:49;;;;;;;12.85;7.72;;;;;;;;;;10463992;28;20037;-75
2023/01/25 21:11:49;;;;;;;12.25;5.32;;;;;;;;;;10463204;28;20016;-75
2023/01/25 21:16:49;;;;;;;13.10;6.57;;;;;;;;;;10442049;28;20112;-73
2023/01/25 21:21:50;;;;;;;14.32;6.25;;;;;;;;;;10463680;28;20111;-75
2023/01/25 21:26:50;;;;;;;17.08;7.43;;;;;;;;;;10463065;28;20016;-68
2023/01/25 21:31:51;;;;;;;10.93;6.17;;;;;;;;;;10467373;28;20557;-74
2023/01/25 21:36:53;;;;;;;12.85;5.68;;;;;;;;;;10472255;28;20324;-75
2023/01/25 21:41:53;;;;;;;9.82;5.45;;;;;;;;;;10472363;28;20031;-74
2023/01/25 21:46:53;;;;;;;6.32;3.95;;;;;;;;;;10468433;28;20016;-76
2023/01/25 21:51:55;;;;;;;12.23;6.93;;;;;;;;;;10488830;28;20024;-73
2023/01/25 21:56:56;;;;;;;13.13;5.90;;;;;;;;;;10469870;28;20056;-76
2023/01/25 22:02:00;;;;;;;13.15;5.22;;;;;;;;;;10463803;28;20052;-75
2023/01/25 22:07:04;;;;;;;12.35;6.45;;;;;;;;;;10469111;28;20037;-76
2023/01/25 22:12:04;;;;;;;14.10;6.50;;;;;;;;;;10471815;28;20039;-75
2023/01/25 22:17:04;;;;;;;11.15;6.68;;;;;;;;;;10464439;28;20455;-74
2023/01/25 22:22:05;;;;;;;13.05;5.50;;;;;;;;;;10471360;28;20075;-74
2023/01/25 22:27:05;;;;;;;9.48;4.95;;;;;;;;;;10465852;28;20035;-71
2023/01/25 22:32:05;;;;;;;13.38;6.82;;;;;;;;;;10466608;28;20032;-74
2023/01/25 22:37:05;;;;;;;9.18;4.72;;;;;;;;;;10471094;28;20039;-76
2023/01/25 22:42:06;;;;;;;7.93;4.75;;;;;;;;;;10469181;28;20024;-70
2023/01/25 22:47:06;;;;;;;12.10;6.60;;;;;;;;;;10452331;28;20499;-74
2023/01/25 22:52:06;;;;;;;11.63;6.07;;;;;;;;;;10469585;28;20028;-76
2023/01/25 22:57:06;;;;;;;14.40;7.60;;;;;;;;;;10469418;28;20032;-75
2023/01/25 23:02:07;;;;;;;7.63;4.10;;;;;;;;;;10469665;28;20458;-70
2023/01/25 23:07:17;;;;;;;9.60;5.63;;;;;;;;;;10464700;28;20414;-72
2023/01/25 23:12:18;;;;;;;15.38;6.60;;;;;;;;;;10468903;28;20494;-71
2023/01/25 23:22:38;;;;;;;13.10;5.60;;;;;;;;;;10470924;28;20644;-76
2023/01/25 23:27:39;;;;;;;14.35;7.15;;;;;;;;;;10468838;28;20025;-76
2023/01/25 23:32:44;;;;;;;11.80;4.93;;;;;;;;;;10467665;28;20029;-74
2023/01/25 23:37:45;;;;;;;8.30;6.05;;;;;;;;;;10486612;28;20021;-75
2023/01/25 23:42:45;;;;;;;13.38;6.22;;;;;;;;;;10461545;28;20025;-70
2023/01/25 23:47:46;;;;;;;12.40;5.38;;;;;;;;;;10467633;28;20462;-68
2023/01/25 23:52:46;;;;;;;3.83;3.05;;;;;;;;;;10465168;28;20115;-75
2023/01/25 23:57:46;;;;;;;11.63;5.65;;;;;;;;;;10467805;28;20036;-74
